ěÝzenÝ letovÚho provozu ╚eskÚ republiky
Letiste: LKTB Aktualizace: 10.08.2020 04:30:25  UTC
 METAR LKTB 10.08. 04:30 ...
METAR LKTB 100430Z 32003KT CAVOK 19/17 Q1016 NOSIG RMK REG QNH 1014=
 TAF LKTB 09.08. 23:00 ...
TAF LKTB 092300Z 1000/1106 VRB02KT CAVOK      BECMG 1007/1009 07009KT      PROB40 TEMPO 1012/1019 07016KT 8000 SHRA SCT040CB=